sensor_id;sensor_type;location;lat;lon;timestamp;temperature;humidity
76567;DHT22;65428;53.194;6.132;2022-12-13T00:00:14;-4.10;94.90
76567;DHT22;65428;53.194;6.132;2022-12-13T00:02:43;-4.20;95.00
76567;DHT22;65428;53.194;6.132;2022-12-13T00:05:09;-4.20;94.90
76567;DHT22;65428;53.194;6.132;2022-12-13T00:07:35;-4.20;95.10
76567;DHT22;65428;53.194;6.132;2022-12-13T00:10:01;-4.30;94.90
76567;DHT22;65428;53.194;6.132;2022-12-13T00:12:26;-4.20;95.10
76567;DHT22;65428;53.194;6.132;2022-12-13T00:14:52;-4.30;94.80
76567;DHT22;65428;53.194;6.132;2022-12-13T00:17:18;-4.30;95.20
76567;DHT22;65428;53.194;6.132;2022-12-13T00:19:45;-4.30;95.10
76567;DHT22;65428;53.194;6.132;2022-12-13T00:22:10;-4.30;94.70
76567;DHT22;65428;53.194;6.132;2022-12-13T00:24:36;-4.30;94.60
76567;DHT22;65428;53.194;6.132;2022-12-13T00:27:02;-4.30;94.80
76567;DHT22;65428;53.194;6.132;2022-12-13T00:29:27;-4.40;94.40
76567;DHT22;65428;53.194;6.132;2022-12-13T00:31:53;-4.40;94.70
76567;DHT22;65428;53.194;6.132;2022-12-13T00:34:20;-4.50;94.20
76567;DHT22;65428;53.194;6.132;2022-12-13T00:36:46;-4.40;94.60
76567;DHT22;65428;53.194;6.132;2022-12-13T00:39:11;-4.40;94.80
76567;DHT22;65428;53.194;6.132;2022-12-13T00:41:38;-4.40;94.80
76567;DHT22;65428;53.194;6.132;2022-12-13T00:44:05;-4.30;95.30
76567;DHT22;65428;53.194;6.132;2022-12-13T00:46:31;-4.50;95.30
76567;DHT22;65428;53.194;6.132;2022-12-13T00:48:59;-4.50;94.90
76567;DHT22;65428;53.194;6.132;2022-12-13T00:51:26;-4.50;94.50
76567;DHT22;65428;53.194;6.132;2022-12-13T00:53:52;-4.50;94.50
76567;DHT22;65428;53.194;6.132;2022-12-13T00:56:21;-4.20;95.10
76567;DHT22;65428;53.194;6.132;2022-12-13T00:58:48;-4.50;95.00
76567;DHT22;65428;53.194;6.132;2022-12-13T01:01:15;-4.50;95.20
76567;DHT22;65428;53.194;6.132;2022-12-13T01:03:41;-4.60;94.80
76567;DHT22;65428;53.194;6.132;2022-12-13T01:06:14;-4.60;94.80
76567;DHT22;65428;53.194;6.132;2022-12-13T01:08:40;-4.60;95.10
76567;DHT22;65428;53.194;6.132;2022-12-13T01:11:06;-4.60;94.90
76567;DHT22;65428;53.194;6.132;2022-12-13T01:13:32;-4.60;94.90
76567;DHT22;65428;53.194;6.132;2022-12-13T01:16:00;-4.50;95.20
76567;DHT22;65428;53.194;6.132;2022-12-13T01:18:25;-4.60;94.80
76567;DHT22;65428;53.194;6.132;2022-12-13T01:20:58;-4.70;94.50
76567;DHT22;65428;53.194;6.132;2022-12-13T01:23:25;-4.60;94.90
76567;DHT22;65428;53.194;6.132;2022-12-13T01:25:51;-4.60;95.30
76567;DHT22;65428;53.194;6.132;2022-12-13T01:28:17;-4.70;95.10
76567;DHT22;65428;53.194;6.132;2022-12-13T01:30:42;-4.60;94.90
76567;DHT22;65428;53.194;6.132;2022-12-13T01:33:08;-4.70;94.50
76567;DHT22;65428;53.194;6.132;2022-12-13T01:35:34;-4.70;94.60
76567;DHT22;65428;53.194;6.132;2022-12-13T01:37:59;-4.70;94.90
76567;DHT22;65428;53.194;6.132;2022-12-13T01:40:25;-4.70;95.10
76567;DHT22;65428;53.194;6.132;2022-12-13T01:42:51;-4.70;94.70
76567;DHT22;65428;53.194;6.132;2022-12-13T01:45:27;-4.70;94.70
76567;DHT22;65428;53.194;6.132;2022-12-13T01:48:00;-4.70;95.00
76567;DHT22;65428;53.194;6.132;2022-12-13T01:50:36;-4.70;94.70
76567;DHT22;65428;53.194;6.132;2022-12-13T01:53:06;-4.80;94.50
76567;DHT22;65428;53.194;6.132;2022-12-13T01:55:34;-4.70;94.80
76567;DHT22;65428;53.194;6.132;2022-12-13T01:58:01;-4.80;94.50
76567;DHT22;65428;53.194;6.132;2022-12-13T02:00:27;-4.80;94.50
76567;DHT22;65428;53.194;6.132;2022-12-13T02:02:55;-4.80;94.40
76567;DHT22;65428;53.194;6.132;2022-12-13T02:05:38;-4.80;94.30
76567;DHT22;65428;53.194;6.132;2022-12-13T02:08:07;-4.80;95.00
76567;DHT22;65428;53.194;6.132;2022-12-13T02:10:34;-4.80;94.80
76567;DHT22;65428;53.194;6.132;2022-12-13T02:13:00;-4.80;94.90
76567;DHT22;65428;53.194;6.132;2022-12-13T02:15:34;-4.80;95.30
76567;DHT22;65428;53.194;6.132;2022-12-13T02:18:16;-4.80;95.10
76567;DHT22;65428;53.194;6.132;2022-12-13T02:21:02;-4.80;94.80
76567;DHT22;65428;53.194;6.132;2022-12-13T02:26:47;-4.80;94.60
76567;DHT22;65428;53.194;6.132;2022-12-13T02:32:40;-4.90;94.90
76567;DHT22;65428;53.194;6.132;2022-12-13T02:35:39;-4.80;94.60
76567;DHT22;65428;53.194;6.132;2022-12-13T02:41:04;-4.90;94.30
76567;DHT22;65428;53.194;6.132;2022-12-13T02:43:39;-4.90;94.40
76567;DHT22;65428;53.194;6.132;2022-12-13T02:46:07;-5.00;94.60
76567;DHT22;65428;53.194;6.132;2022-12-13T02:48:37;-4.90;94.80
76567;DHT22;65428;53.194;6.132;2022-12-13T02:51:04;-4.90;94.90
76567;DHT22;65428;53.194;6.132;2022-12-13T02:53:32;-4.90;94.90
76567;DHT22;65428;53.194;6.132;2022-12-13T02:55:58;-4.90;94.70
76567;DHT22;65428;53.194;6.132;2022-12-13T02:58:29;-4.90;94.70
76567;DHT22;65428;53.194;6.132;2022-12-13T03:12:08;-5.00;95.00
76567;DHT22;65428;53.194;6.132;2022-12-13T03:17:41;-5.00;95.10
76567;DHT22;65428;53.194;6.132;2022-12-13T03:20:08;-5.00;94.90
76567;DHT22;65428;53.194;6.132;2022-12-13T03:22:34;-5.00;94.60
76567;DHT22;65428;53.194;6.132;2022-12-13T03:25:00;-5.00;94.60
76567;DHT22;65428;53.194;6.132;2022-12-13T03:27:26;-5.00;94.70
76567;DHT22;65428;53.194;6.132;2022-12-13T03:29:51;-5.00;95.00
76567;DHT22;65428;53.194;6.132;2022-12-13T03:32:17;-5.00;95.10
76567;DHT22;65428;53.194;6.132;2022-12-13T03:34:42;-5.00;94.60
76567;DHT22;65428;53.194;6.132;2022-12-13T03:37:08;-5.00;94.50
76567;DHT22;65428;53.194;6.132;2022-12-13T03:39:34;-5.00;94.70
76567;DHT22;65428;53.194;6.132;2022-12-13T03:42:00;-5.00;94.70
76567;DHT22;65428;53.194;6.132;2022-12-13T03:44:25;-5.00;94.90
76567;DHT22;65428;53.194;6.132;2022-12-13T03:46:51;-5.00;94.80
76567;DHT22;65428;53.194;6.132;2022-12-13T03:49:17;-5.00;95.20
76567;DHT22;65428;53.194;6.132;2022-12-13T03:51:42;-5.00;95.00
76567;DHT22;65428;53.194;6.132;2022-12-13T03:54:08;-5.00;94.70
76567;DHT22;65428;53.194;6.132;2022-12-13T03:56:34;-5.10;94.50
76567;DHT22;65428;53.194;6.132;2022-12-13T03:58:59;-5.10;94.40
76567;DHT22;65428;53.194;6.132;2022-12-13T04:01:26;-5.10;94.50
76567;DHT22;65428;53.194;6.132;2022-12-13T04:03:53;-5.10;94.60
76567;DHT22;65428;53.194;6.132;2022-12-13T04:06:18;-5.10;94.70
76567;DHT22;65428;53.194;6.132;2022-12-13T04:08:44;-5.10;94.20
76567;DHT22;65428;53.194;6.132;2022-12-13T04:11:10;-5.20;93.90
76567;DHT22;65428;53.194;6.132;2022-12-13T04:13:54;-5.20;94.00
76567;DHT22;65428;53.194;6.132;2022-12-13T04:16:20;-5.20;94.30
76567;DHT22;65428;53.194;6.132;2022-12-13T04:18:46;-5.30;94.40
76567;DHT22;65428;53.194;6.132;2022-12-13T04:21:12;-5.20;94.40
76567;DHT22;65428;53.194;6.132;2022-12-13T04:23:37;-5.20;94.30
76567;DHT22;65428;53.194;6.132;2022-12-13T04:26:03;-5.20;94.40
76567;DHT22;65428;53.194;6.132;2022-12-13T04:28:28;-5.20;94.80
76567;DHT22;65428;53.194;6.132;2022-12-13T04:30:54;-5.20;94.70
76567;DHT22;65428;53.194;6.132;2022-12-13T04:33:23;-5.30;94.30
76567;DHT22;65428;53.194;6.132;2022-12-13T04:35:49;-5.20;94.40
76567;DHT22;65428;53.194;6.132;2022-12-13T04:38:15;-5.30;94.50
76567;DHT22;65428;53.194;6.132;2022-12-13T04:40:41;-5.30;94.60
76567;DHT22;65428;53.194;6.132;2022-12-13T04:43:07;-5.30;94.60
76567;DHT22;65428;53.194;6.132;2022-12-13T04:45:32;-5.30;94.80
76567;DHT22;65428;53.194;6.132;2022-12-13T04:47:58;-5.30;94.80
76567;DHT22;65428;53.194;6.132;2022-12-13T04:50:24;-5.20;94.50
76567;DHT22;65428;53.194;6.132;2022-12-13T04:52:49;-5.30;94.60
76567;DHT22;65428;53.194;6.132;2022-12-13T04:55:15;-5.30;94.80
76567;DHT22;65428;53.194;6.132;2022-12-13T04:57:40;-5.30;94.30
76567;DHT22;65428;53.194;6.132;2022-12-13T05:00:09;-5.30;94.20
76567;DHT22;65428;53.194;6.132;2022-12-13T05:02:35;-5.30;94.60
76567;DHT22;65428;53.194;6.132;2022-12-13T05:05:01;-5.30;94.70
76567;DHT22;65428;53.194;6.132;2022-12-13T05:07:26;-5.30;94.60
76567;DHT22;65428;53.194;6.132;2022-12-13T05:09:52;-5.30;94.80
76567;DHT22;65428;53.194;6.132;2022-12-13T05:12:18;-5.30;95.00
76567;DHT22;65428;53.194;6.132;2022-12-13T05:14:43;-5.30;95.00
76567;DHT22;65428;53.194;6.132;2022-12-13T05:17:09;-5.30;94.80
76567;DHT22;65428;53.194;6.132;2022-12-13T05:19:35;-5.30;94.60
76567;DHT22;65428;53.194;6.132;2022-12-13T05:22:00;-5.30;94.50
76567;DHT22;65428;53.194;6.132;2022-12-13T05:24:26;-5.30;94.20
76567;DHT22;65428;53.194;6.132;2022-12-13T05:26:51;-5.40;94.50
76567;DHT22;65428;53.194;6.132;2022-12-13T05:29:17;-5.30;95.10
76567;DHT22;65428;53.194;6.132;2022-12-13T05:31:43;-5.30;94.80
76567;DHT22;65428;53.194;6.132;2022-12-13T05:34:09;-5.30;94.70
76567;DHT22;65428;53.194;6.132;2022-12-13T05:36:34;-5.30;94.90
76567;DHT22;65428;53.194;6.132;2022-12-13T05:39:00;-5.40;94.90
76567;DHT22;65428;53.194;6.132;2022-12-13T05:41:28;-5.40;94.90
76567;DHT22;65428;53.194;6.132;2022-12-13T05:43:57;-5.40;95.20
76567;DHT22;65428;53.194;6.132;2022-12-13T05:46:23;-5.40;94.80
76567;DHT22;65428;53.194;6.132;2022-12-13T05:48:49;-5.40;94.70
76567;DHT22;65428;53.194;6.132;2022-12-13T05:51:14;-5.40;95.10
76567;DHT22;65428;53.194;6.132;2022-12-13T05:53:40;-5.40;95.00
76567;DHT22;65428;53.194;6.132;2022-12-13T05:56:07;-5.40;94.90
76567;DHT22;65428;53.194;6.132;2022-12-13T05:58:33;-5.40;94.60
76567;DHT22;65428;53.194;6.132;2022-12-13T06:01:11;-5.40;94.30
76567;DHT22;65428;53.194;6.132;2022-12-13T06:03:37;-5.40;94.40
76567;DHT22;65428;53.194;6.132;2022-12-13T06:06:04;-5.40;94.30
76567;DHT22;65428;53.194;6.132;2022-12-13T06:08:30;-5.40;94.50
76567;DHT22;65428;53.194;6.132;2022-12-13T06:10:58;-5.30;94.80
76567;DHT22;65428;53.194;6.132;2022-12-13T06:13:24;-5.50;94.50
76567;DHT22;65428;53.194;6.132;2022-12-13T06:15:50;-5.50;94.10
76567;DHT22;65428;53.194;6.132;2022-12-13T06:18:16;-5.50;94.30
76567;DHT22;65428;53.194;6.132;2022-12-13T06:20:41;-5.50;94.40
76567;DHT22;65428;53.194;6.132;2022-12-13T06:23:07;-5.50;94.50
76567;DHT22;65428;53.194;6.132;2022-12-13T06:25:32;-5.50;94.50
76567;DHT22;65428;53.194;6.132;2022-12-13T06:27:58;-5.60;94.40
76567;DHT22;65428;53.194;6.132;2022-12-13T06:30:24;-5.60;94.20
76567;DHT22;65428;53.194;6.132;2022-12-13T06:32:50;-5.60;94.20
76567;DHT22;65428;53.194;6.132;2022-12-13T06:35:16;-5.60;94.50
76567;DHT22;65428;53.194;6.132;2022-12-13T06:37:41;-5.60;94.80
76567;DHT22;65428;53.194;6.132;2022-12-13T06:40:07;-5.50;94.70
76567;DHT22;65428;53.194;6.132;2022-12-13T06:42:33;-5.60;94.90
76567;DHT22;65428;53.194;6.132;2022-12-13T06:44:59;-5.60;94.50
76567;DHT22;65428;53.194;6.132;2022-12-13T06:47:25;-5.40;94.30
76567;DHT22;65428;53.194;6.132;2022-12-13T06:49:51;-5.60;94.40
76567;DHT22;65428;53.194;6.132;2022-12-13T06:52:16;-5.60;94.70
76567;DHT22;65428;53.194;6.132;2022-12-13T06:54:42;-5.50;95.00
76567;DHT22;65428;53.194;6.132;2022-12-13T06:57:09;-5.50;95.00
76567;DHT22;65428;53.194;6.132;2022-12-13T06:59:35;-5.40;95.30
76567;DHT22;65428;53.194;6.132;2022-12-13T07:02:01;-5.40;95.00
76567;DHT22;65428;53.194;6.132;2022-12-13T07:04:27;-5.50;94.30
76567;DHT22;65428;53.194;6.132;2022-12-13T07:06:52;-5.50;94.20
76567;DHT22;65428;53.194;6.132;2022-12-13T07:09:18;-5.50;94.40
76567;DHT22;65428;53.194;6.132;2022-12-13T07:11:44;-5.50;94.60
76567;DHT22;65428;53.194;6.132;2022-12-13T07:14:09;-5.50;94.70
76567;DHT22;65428;53.194;6.132;2022-12-13T07:16:35;-5.50;94.50
76567;DHT22;65428;53.194;6.132;2022-12-13T07:19:01;-5.50;94.80
76567;DHT22;65428;53.194;6.132;2022-12-13T07:21:28;-5.40;94.80
76567;DHT22;65428;53.194;6.132;2022-12-13T07:23:54;-5.50;94.50
76567;DHT22;65428;53.194;6.132;2022-12-13T07:26:20;-5.50;94.50
76567;DHT22;65428;53.194;6.132;2022-12-13T07:28:46;-5.50;94.40
76567;DHT22;65428;53.194;6.132;2022-12-13T07:31:12;-5.50;94.50
76567;DHT22;65428;53.194;6.132;2022-12-13T07:33:38;-5.50;94.40
76567;DHT22;65428;53.194;6.132;2022-12-13T07:36:07;-5.50;94.50
76567;DHT22;65428;53.194;6.132;2022-12-13T07:38:34;-5.50;95.00
76567;DHT22;65428;53.194;6.132;2022-12-13T07:41:00;-5.50;95.00
76567;DHT22;65428;53.194;6.132;2022-12-13T07:43:26;-5.40;95.10
76567;DHT22;65428;53.194;6.132;2022-12-13T07:45:53;-5.40;94.70
76567;DHT22;65428;53.194;6.132;2022-12-13T07:48:22;-5.40;94.50
76567;DHT22;65428;53.194;6.132;2022-12-13T07:50:47;-5.40;94.40
76567;DHT22;65428;53.194;6.132;2022-12-13T07:53:13;-5.40;94.40
76567;DHT22;65428;53.194;6.132;2022-12-13T07:55:39;-5.40;94.70
76567;DHT22;65428;53.194;6.132;2022-12-13T07:58:06;-5.40;95.10
76567;DHT22;65428;53.194;6.132;2022-12-13T08:00:32;-5.30;94.90
76567;DHT22;65428;53.194;6.132;2022-12-13T08:02:59;-5.30;94.70
76567;DHT22;65428;53.194;6.132;2022-12-13T08:05:25;-5.30;94.40
76567;DHT22;65428;53.194;6.132;2022-12-13T08:07:50;-5.30;94.50
76567;DHT22;65428;53.194;6.132;2022-12-13T08:10:16;-5.30;94.50
76567;DHT22;65428;53.194;6.132;2022-12-13T08:12:41;-5.20;94.50
76567;DHT22;65428;53.194;6.132;2022-12-13T08:15:07;-5.20;94.40
76567;DHT22;65428;53.194;6.132;2022-12-13T08:17:33;-5.20;94.60
76567;DHT22;65428;53.194;6.132;2022-12-13T08:19:59;-5.10;94.70
76567;DHT22;65428;53.194;6.132;2022-12-13T08:22:24;-5.10;94.60
76567;DHT22;65428;53.194;6.132;2022-12-13T08:24:50;-5.00;94.50
76567;DHT22;65428;53.194;6.132;2022-12-13T08:27:16;-4.90;94.60
76567;DHT22;65428;53.194;6.132;2022-12-13T08:29:42;-4.80;94.60
76567;DHT22;65428;53.194;6.132;2022-12-13T08:32:10;-4.70;94.80
76567;DHT22;65428;53.194;6.132;2022-12-13T08:34:37;-4.60;95.30
76567;DHT22;65428;53.194;6.132;2022-12-13T08:37:03;-4.50;94.90
76567;DHT22;65428;53.194;6.132;2022-12-13T08:39:36;-4.40;95.20
76567;DHT22;65428;53.194;6.132;2022-12-13T08:42:04;-4.30;94.90
76567;DHT22;65428;53.194;6.132;2022-12-13T08:44:30;-4.20;94.70
76567;DHT22;65428;53.194;6.132;2022-12-13T08:46:56;-4.10;94.60
76567;DHT22;65428;53.194;6.132;2022-12-13T08:49:21;-4.00;94.50
76567;DHT22;65428;53.194;6.132;2022-12-13T08:51:47;-3.90;94.40
76567;DHT22;65428;53.194;6.132;2022-12-13T08:54:13;-3.90;94.40
76567;DHT22;65428;53.194;6.132;2022-12-13T08:56:38;-3.80;94.60
76567;DHT22;65428;53.194;6.132;2022-12-13T08:59:04;-3.70;94.40
76567;DHT22;65428;53.194;6.132;2022-12-13T09:01:30;-3.60;94.50
76567;DHT22;65428;53.194;6.132;2022-12-13T09:03:55;-3.40;94.90
76567;DHT22;65428;53.194;6.132;2022-12-13T09:06:21;-3.40;94.60
76567;DHT22;65428;53.194;6.132;2022-12-13T09:08:47;-3.10;94.60
76567;DHT22;65428;53.194;6.132;2022-12-13T09:11:12;-3.00;94.80
76567;DHT22;65428;53.194;6.132;2022-12-13T09:13:39;-2.90;94.60
76567;DHT22;65428;53.194;6.132;2022-12-13T09:16:11;-2.70;94.70
76567;DHT22;65428;53.194;6.132;2022-12-13T09:18:37;-2.60;94.40
76567;DHT22;65428;53.194;6.132;2022-12-13T09:21:08;-2.40;94.50
76567;DHT22;65428;53.194;6.132;2022-12-13T09:23:33;-2.30;94.20
76567;DHT22;65428;53.194;6.132;2022-12-13T09:25:59;-2.20;94.10
76567;DHT22;65428;53.194;6.132;2022-12-13T09:28:26;-2.00;93.90
76567;DHT22;65428;53.194;6.132;2022-12-13T09:30:52;-1.90;94.10
76567;DHT22;65428;53.194;6.132;2022-12-13T09:33:18;-1.80;94.30
76567;DHT22;65428;53.194;6.132;2022-12-13T09:35:44;-1.50;93.70
76567;DHT22;65428;53.194;6.132;2022-12-13T09:38:10;-1.20;93.40
76567;DHT22;65428;53.194;6.132;2022-12-13T09:40:37;-0.70;93.20
76567;DHT22;65428;53.194;6.132;2022-12-13T09:43:03;-0.60;92.90
76567;DHT22;65428;53.194;6.132;2022-12-13T09:45:30;-0.30;92.50
76567;DHT22;65428;53.194;6.132;2022-12-13T09:47:57;-0.20;92.30
76567;DHT22;65428;53.194;6.132;2022-12-13T09:50:33;0.00;92.00
76567;DHT22;65428;53.194;6.132;2022-12-13T09:53:00;0.20;92.00
76567;DHT22;65428;53.194;6.132;2022-12-13T09:55:27;0.30;92.00
76567;DHT22;65428;53.194;6.132;2022-12-13T09:57:56;0.30;91.60
76567;DHT22;65428;53.194;6.132;2022-12-13T10:00:24;0.30;91.80
76567;DHT22;65428;53.194;6.132;2022-12-13T10:02:55;0.40;91.50
76567;DHT22;65428;53.194;6.132;2022-12-13T10:05:29;0.30;91.60
76567;DHT22;65428;53.194;6.132;2022-12-13T10:07:58;0.40;91.90
76567;DHT22;65428;53.194;6.132;2022-12-13T10:10:25;0.40;91.90
76567;DHT22;65428;53.194;6.132;2022-12-13T10:13:19;0.40;91.80
76567;DHT22;65428;53.194;6.132;2022-12-13T10:15:50;0.40;91.90
76567;DHT22;65428;53.194;6.132;2022-12-13T10:18:26;0.40;92.00
76567;DHT22;65428;53.194;6.132;2022-12-13T10:20:55;0.50;92.20
76567;DHT22;65428;53.194;6.132;2022-12-13T10:23:21;0.50;92.00
76567;DHT22;65428;53.194;6.132;2022-12-13T10:25:52;0.50;92.30
76567;DHT22;65428;53.194;6.132;2022-12-13T10:28:27;0.50;91.90
76567;DHT22;65428;53.194;6.132;2022-12-13T10:30:54;0.40;92.00
76567;DHT22;65428;53.194;6.132;2022-12-13T10:33:29;0.50;92.20
76567;DHT22;65428;53.194;6.132;2022-12-13T10:36:14;0.50;92.40
76567;DHT22;65428;53.194;6.132;2022-12-13T10:38:44;0.60;92.10
76567;DHT22;65428;53.194;6.132;2022-12-13T10:41:30;0.60;91.90
76567;DHT22;65428;53.194;6.132;2022-12-13T10:44:21;0.80;92.20
76567;DHT22;65428;53.194;6.132;2022-12-13T10:46:56;1.00;92.00
76567;DHT22;65428;53.194;6.132;2022-12-13T10:49:28;1.20;91.80
76567;DHT22;65428;53.194;6.132;2022-12-13T10:51:55;1.50;91.70
76567;DHT22;65428;53.194;6.132;2022-12-13T10:54:29;1.80;91.60
76567;DHT22;65428;53.194;6.132;2022-12-13T10:56:56;2.00;90.50
76567;DHT22;65428;53.194;6.132;2022-12-13T10:59:36;2.30;90.30
76567;DHT22;65428;53.194;6.132;2022-12-13T11:02:27;2.40;89.60
76567;DHT22;65428;53.194;6.132;2022-12-13T11:04:53;2.20;89.10
76567;DHT22;65428;53.194;6.132;2022-12-13T11:07:31;2.10;89.50
76567;DHT22;65428;53.194;6.132;2022-12-13T11:09:58;2.10;89.40
76567;DHT22;65428;53.194;6.132;2022-12-13T11:12:39;2.20;89.20
76567;DHT22;65428;53.194;6.132;2022-12-13T11:15:06;1.90;90.10
76567;DHT22;65428;53.194;6.132;2022-12-13T11:17:50;2.00;90.10
76567;DHT22;65428;53.194;6.132;2022-12-13T11:20:21;2.10;90.20
76567;DHT22;65428;53.194;6.132;2022-12-13T11:22:48;2.10;89.70
76567;DHT22;65428;53.194;6.132;2022-12-13T11:31:00;1.70;90.00
76567;DHT22;65428;53.194;6.132;2022-12-13T11:36:41;1.50;90.70
76567;DHT22;65428;53.194;6.132;2022-12-13T11:39:20;1.50;91.10
76567;DHT22;65428;53.194;6.132;2022-12-13T11:41:58;1.80;91.50
76567;DHT22;65428;53.194;6.132;2022-12-13T11:44:36;1.80;90.70
76567;DHT22;65428;53.194;6.132;2022-12-13T11:47:04;2.00;90.20
76567;DHT22;65428;53.194;6.132;2022-12-13T11:49:39;2.20;89.80
76567;DHT22;65428;53.194;6.132;2022-12-13T11:52:29;2.40;88.50
76567;DHT22;65428;53.194;6.132;2022-12-13T11:55:21;2.40;87.10
76567;DHT22;65428;53.194;6.132;2022-12-13T11:58:04;2.50;87.40
76567;DHT22;65428;53.194;6.132;2022-12-13T12:00:37;2.80;88.10
76567;DHT22;65428;53.194;6.132;2022-12-13T12:03:20;2.90;85.10
76567;DHT22;65428;53.194;6.132;2022-12-13T12:05:53;3.20;85.10
76567;DHT22;65428;53.194;6.132;2022-12-13T12:08:22;3.30;84.40
76567;DHT22;65428;53.194;6.132;2022-12-13T12:10:59;3.40;83.50
76567;DHT22;65428;53.194;6.132;2022-12-13T12:13:43;3.80;81.50
76567;DHT22;65428;53.194;6.132;2022-12-13T12:16:19;3.90;80.60
76567;DHT22;65428;53.194;6.132;2022-12-13T12:18:45;3.90;80.50
76567;DHT22;65428;53.194;6.132;2022-12-13T12:21:26;3.80;80.30
76567;DHT22;65428;53.194;6.132;2022-12-13T12:29:28;3.00;84.60
76567;DHT22;65428;53.194;6.132;2022-12-13T12:32:22;2.80;85.60
76567;DHT22;65428;53.194;6.132;2022-12-13T12:43:41;2.00;86.70
76567;DHT22;65428;53.194;6.132;2022-12-13T12:46:34;1.90;89.20
76567;DHT22;65428;53.194;6.132;2022-12-13T12:52:12;1.80;89.50
76567;DHT22;65428;53.194;6.132;2022-12-13T12:54:57;1.70;90.70
76567;DHT22;65428;53.194;6.132;2022-12-13T13:00:22;1.50;90.00
76567;DHT22;65428;53.194;6.132;2022-12-13T13:03:07;1.50;90.20
76567;DHT22;65428;53.194;6.132;2022-12-13T13:05:44;1.50;90.00
76567;DHT22;65428;53.194;6.132;2022-12-13T13:08:26;1.50;90.20
76567;DHT22;65428;53.194;6.132;2022-12-13T13:10:54;1.60;90.10
76567;DHT22;65428;53.194;6.132;2022-12-13T13:13:43;1.50;90.90
76567;DHT22;65428;53.194;6.132;2022-12-13T13:16:34;1.60;90.10
76567;DHT22;65428;53.194;6.132;2022-12-13T13:22:01;1.60;90.40
76567;DHT22;65428;53.194;6.132;2022-12-13T13:24:31;1.60;90.30
76567;DHT22;65428;53.194;6.132;2022-12-13T13:26:58;1.50;89.00
76567;DHT22;65428;53.194;6.132;2022-12-13T13:31:57;1.40;88.80
76567;DHT22;65428;53.194;6.132;2022-12-13T13:34:34;1.40;89.00
76567;DHT22;65428;53.194;6.132;2022-12-13T13:37:01;1.40;89.10
76567;DHT22;65428;53.194;6.132;2022-12-13T14:01:30;1.00;88.20
76567;DHT22;65428;53.194;6.132;2022-12-13T14:04:16;0.90;88.10
76567;DHT22;65428;53.194;6.132;2022-12-13T14:09:45;0.70;89.00
76567;DHT22;65428;53.194;6.132;2022-12-13T14:15:46;0.60;89.90
76567;DHT22;65428;53.194;6.132;2022-12-13T14:26:18;0.30;90.40
76567;DHT22;65428;53.194;6.132;2022-12-13T14:28:54;0.30;90.50
76567;DHT22;65428;53.194;6.132;2022-12-13T14:34:24;0.20;90.60
76567;DHT22;65428;53.194;6.132;2022-12-13T14:37:04;0.10;90.60
76567;DHT22;65428;53.194;6.132;2022-12-13T14:39:31;0.10;90.60
76567;DHT22;65428;53.194;6.132;2022-12-13T14:42:01;0.00;90.70
76567;DHT22;65428;53.194;6.132;2022-12-13T14:44:31;-0.10;90.80
76567;DHT22;65428;53.194;6.132;2022-12-13T14:47:02;-0.10;90.90
76567;DHT22;65428;53.194;6.132;2022-12-13T14:49:33;-0.20;91.00
76567;DHT22;65428;53.194;6.132;2022-12-13T14:52:17;-0.30;91.20
76567;DHT22;65428;53.194;6.132;2022-12-13T14:54:56;-0.30;91.40
76567;DHT22;65428;53.194;6.132;2022-12-13T14:57:27;-0.30;91.50
76567;DHT22;65428;53.194;6.132;2022-12-13T14:59:55;-0.40;91.30
76567;DHT22;65428;53.194;6.132;2022-12-13T15:02:27;-0.40;91.70
76567;DHT22;65428;53.194;6.132;2022-12-13T15:04:54;-0.50;91.60
76567;DHT22;65428;53.194;6.132;2022-12-13T15:10:25;-0.70;91.50
76567;DHT22;65428;53.194;6.132;2022-12-13T15:12:51;-0.80;91.60
76567;DHT22;65428;53.194;6.132;2022-12-13T15:15:29;-0.90;91.70
76567;DHT22;65428;53.194;6.132;2022-12-13T15:18:18;-0.90;92.00
76567;DHT22;65428;53.194;6.132;2022-12-13T15:20:45;-0.90;91.70
76567;DHT22;65428;53.194;6.132;2022-12-13T15:25:56;-1.00;92.00
76567;DHT22;65428;53.194;6.132;2022-12-13T15:28:28;-1.00;92.00
76567;DHT22;65428;53.194;6.132;2022-12-13T15:30:56;-1.10;91.90
76567;DHT22;65428;53.194;6.132;2022-12-13T15:33:27;-1.10;91.80
76567;DHT22;65428;53.194;6.132;2022-12-13T15:36:15;-1.20;91.90
76567;DHT22;65428;53.194;6.132;2022-12-13T15:38:49;-1.20;91.80
76567;DHT22;65428;53.194;6.132;2022-12-13T15:41:18;-1.30;92.20
76567;DHT22;65428;53.194;6.132;2022-12-13T15:43:49;-1.30;92.10
76567;DHT22;65428;53.194;6.132;2022-12-13T15:46:24;-1.40;92.30
76567;DHT22;65428;53.194;6.132;2022-12-13T15:48:50;-1.50;92.20
76567;DHT22;65428;53.194;6.132;2022-12-13T15:51:18;-1.50;92.50
76567;DHT22;65428;53.194;6.132;2022-12-13T15:56:30;-1.60;92.50
76567;DHT22;65428;53.194;6.132;2022-12-13T15:58:56;-1.70;92.60
76567;DHT22;65428;53.194;6.132;2022-12-13T16:01:34;-1.70;92.60
76567;DHT22;65428;53.194;6.132;2022-12-13T16:04:03;-1.80;92.80
76567;DHT22;65428;53.194;6.132;2022-12-13T16:06:31;-1.80;92.60
76567;DHT22;65428;53.194;6.132;2022-12-13T16:08:59;-1.90;92.60
76567;DHT22;65428;53.194;6.132;2022-12-13T16:11:45;-1.90;93.00
76567;DHT22;65428;53.194;6.132;2022-12-13T16:17:01;-2.00;92.70
76567;DHT22;65428;53.194;6.132;2022-12-13T16:19:27;-2.10;92.60
76567;DHT22;65428;53.194;6.132;2022-12-13T16:21:52;-2.10;92.50
76567;DHT22;65428;53.194;6.132;2022-12-13T16:24:18;-2.20;92.60
76567;DHT22;65428;53.194;6.132;2022-12-13T16:26:45;-2.20;92.70
76567;DHT22;65428;53.194;6.132;2022-12-13T16:29:14;-2.30;92.50
76567;DHT22;65428;53.194;6.132;2022-12-13T16:31:44;-2.30;92.70
76567;DHT22;65428;53.194;6.132;2022-12-13T16:34:11;-2.40;92.60
76567;DHT22;65428;53.194;6.132;2022-12-13T16:36:40;-2.40;93.00
76567;DHT22;65428;53.194;6.132;2022-12-13T16:39:10;-2.40;93.30
76567;DHT22;65428;53.194;6.132;2022-12-13T16:41:37;-2.50;93.40
76567;DHT22;65428;53.194;6.132;2022-12-13T16:44:05;-2.50;93.40
76567;DHT22;65428;53.194;6.132;2022-12-13T16:46:33;-2.50;93.80
76567;DHT22;65428;53.194;6.132;2022-12-13T16:49:00;-2.50;93.70
76567;DHT22;65428;53.194;6.132;2022-12-13T16:51:29;-2.60;93.60
76567;DHT22;65428;53.194;6.132;2022-12-13T16:53:55;-2.60;93.60
76567;DHT22;65428;53.194;6.132;2022-12-13T16:56:20;-2.60;93.50
76567;DHT22;65428;53.194;6.132;2022-12-13T16:58:49;-2.70;93.50
76567;DHT22;65428;53.194;6.132;2022-12-13T17:01:17;-2.70;93.30
76567;DHT22;65428;53.194;6.132;2022-12-13T17:03:44;-2.70;93.70
76567;DHT22;65428;53.194;6.132;2022-12-13T17:06:10;-2.80;93.80
76567;DHT22;65428;53.194;6.132;2022-12-13T17:08:36;-2.80;94.00
76567;DHT22;65428;53.194;6.132;2022-12-13T17:11:02;-2.80;94.30
76567;DHT22;65428;53.194;6.132;2022-12-13T17:13:28;-2.80;94.20
76567;DHT22;65428;53.194;6.132;2022-12-13T17:15:53;-2.80;94.10
76567;DHT22;65428;53.194;6.132;2022-12-13T17:18:19;-2.80;94.40
76567;DHT22;65428;53.194;6.132;2022-12-13T17:20:46;-2.80;94.20
76567;DHT22;65428;53.194;6.132;2022-12-13T17:23:11;-2.80;93.90
76567;DHT22;65428;53.194;6.132;2022-12-13T17:25:38;-2.90;94.10
76567;DHT22;65428;53.194;6.132;2022-12-13T17:28:05;-2.90;94.40
76567;DHT22;65428;53.194;6.132;2022-12-13T17:30:31;-2.90;94.30
76567;DHT22;65428;53.194;6.132;2022-12-13T17:33:00;-2.90;94.20
76567;DHT22;65428;53.194;6.132;2022-12-13T17:35:26;-3.00;94.10